createdAt,value
2023-03-11T00:00:10.612Z,40.58
2023-03-11T00:01:10.644Z,40.59
2023-03-11T00:02:10.792Z,40.60
2023-03-11T00:03:10.734Z,40.61
2023-03-11T00:04:10.759Z,40.62
2023-03-11T00:05:10.814Z,40.59
2023-03-11T00:06:10.819Z,40.59
2023-03-11T00:07:10.861Z,40.56
2023-03-11T00:08:10.925Z,40.59
2023-03-11T00:09:10.978Z,40.60
2023-03-11T00:10:11.032Z,40.51
2023-03-11T00:11:11.090Z,40.59
2023-03-11T00:12:11.103Z,40.57
2023-03-11T00:13:11.149Z,40.56
2023-03-11T00:14:11.279Z,40.56
2023-03-11T00:15:11.269Z,40.59
2023-03-11T00:16:11.365Z,40.57
2023-03-11T00:17:11.366Z,40.58
2023-03-11T00:19:11.476Z,40.56
2023-03-11T00:20:11.530Z,40.59
2023-03-11T00:21:11.642Z,40.56
2023-03-11T00:22:11.681Z,40.58
2023-03-11T00:23:11.719Z,40.56
2023-03-11T00:24:11.757Z,40.57
2023-03-11T00:25:11.815Z,40.56
2023-03-11T00:26:11.867Z,40.58
2023-03-11T00:27:11.954Z,40.57
2023-03-11T00:28:11.981Z,40.60
2023-03-11T00:29:12.034Z,40.59
2023-03-11T00:30:12.093Z,40.54
2023-03-11T00:31:12.232Z,40.59
2023-03-11T00:32:12.310Z,40.57
2023-03-11T00:33:12.271Z,40.52
2023-03-11T00:34:12.312Z,40.57
2023-03-11T00:35:12.356Z,40.55
2023-03-11T00:36:12.471Z,40.55
2023-03-11T00:37:12.469Z,40.56
2023-03-11T00:38:12.521Z,40.53
2023-03-11T00:39:12.579Z,40.59
2023-03-11T00:40:12.630Z,40.56
2023-03-11T00:41:12.697Z,40.53
2023-03-11T00:42:12.747Z,40.52
2023-03-11T00:43:12.795Z,40.47
2023-03-11T00:44:12.859Z,40.47
2023-03-11T00:45:12.880Z,40.51
2023-03-11T00:46:13.293Z,40.52
2023-03-11T00:47:12.996Z,40.53
2023-03-11T00:48:13.053Z,40.54
2023-03-11T00:49:13.115Z,40.52
2023-03-11T00:50:13.188Z,40.54
2023-03-11T00:51:13.226Z,40.51
2023-03-11T00:52:13.276Z,40.51
2023-03-11T00:53:13.344Z,40.52
2023-03-11T00:54:13.385Z,40.48
2023-03-11T00:55:13.439Z,40.49
2023-03-11T02:25:19.206Z,40.33
2023-03-11T02:34:18.924Z,40.32
2023-03-11T02:35:18.973Z,40.28
2023-03-11T02:36:19.088Z,40.37
2023-03-11T02:37:19.068Z,40.37
2023-03-11T02:38:19.157Z,40.32
2023-03-11T02:39:19.185Z,40.30
2023-03-11T02:40:19.241Z,40.28
2023-03-11T02:41:19.312Z,40.29
2023-03-11T02:42:19.354Z,40.26
2023-03-11T02:43:19.399Z,40.24
2023-03-11T02:44:19.482Z,40.29
2023-03-11T02:45:20.223Z,40.30
2023-03-11T02:46:19.629Z,40.28
2023-03-11T02:47:19.660Z,40.29
2023-03-11T02:48:19.731Z,40.24
2023-03-11T02:49:19.775Z,40.26
2023-03-11T02:50:19.841Z,40.25
2023-03-11T02:51:19.900Z,40.25
2023-03-11T02:52:20.016Z,40.24
2023-03-11T02:53:20.125Z,40.26
2023-03-11T02:54:20.720Z,40.24
2023-03-11T02:55:20.169Z,40.21
2023-03-11T02:56:20.219Z,40.23
2023-03-11T02:57:20.294Z,40.21
2023-03-11T02:58:20.426Z,40.24
2023-03-11T02:59:20.412Z,40.19
2023-03-11T03:00:20.497Z,40.20
2023-03-11T03:01:20.655Z,40.26
2023-03-11T03:02:20.654Z,40.26
2023-03-11T03:03:20.641Z,40.21
2023-03-11T03:04:20.790Z,40.23
2023-03-11T03:05:20.756Z,40.21
2023-03-11T03:06:20.784Z,40.29
2023-03-11T03:07:20.819Z,40.25
2023-03-11T03:08:20.866Z,40.24
2023-03-11T03:09:20.915Z,40.21
2023-03-11T03:10:20.958Z,40.18
2023-03-11T03:11:21.026Z,40.21
2023-03-11T03:12:21.060Z,40.24
2023-03-11T03:13:21.105Z,40.23
2023-03-11T03:14:21.154Z,40.22
2023-03-11T03:15:21.181Z,40.20
2023-03-11T03:16:21.331Z,40.18
2023-03-11T03:17:21.299Z,40.21
2023-03-11T03:18:21.281Z,40.21
2023-03-11T03:19:21.376Z,40.22
2023-03-11T03:20:21.335Z,40.18
2023-03-11T05:13:22.639Z,40.01
2023-03-11T05:14:22.623Z,40.03
2023-03-11T05:15:22.616Z,39.99
2023-03-11T05:16:22.853Z,40.02
2023-03-11T05:17:22.618Z,39.98
2023-03-11T05:18:22.644Z,40.01
2023-03-11T05:19:22.590Z,40.01
2023-03-11T05:20:22.614Z,40.02
2023-03-11T05:21:22.616Z,40.01
2023-03-11T05:22:22.634Z,40.01
2023-03-11T05:23:22.658Z,39.99
2023-03-11T05:24:22.675Z,40.01
2023-03-11T05:25:22.670Z,39.96
2023-03-11T05:26:22.690Z,39.97
2023-03-11T05:27:22.687Z,39.98
2023-03-11T05:28:22.691Z,39.96
2023-03-11T05:29:22.688Z,39.99
2023-03-11T05:30:22.694Z,39.97
2023-03-11T05:31:22.713Z,39.94
2023-03-11T05:32:22.743Z,39.96
2023-03-11T05:33:22.676Z,39.97
2023-03-11T05:34:22.676Z,39.98
2023-03-11T05:35:22.768Z,39.97
2023-03-11T05:36:22.694Z,39.94
2023-03-11T05:37:22.680Z,39.96
2023-03-11T05:38:22.680Z,39.97
2023-03-11T05:39:22.677Z,39.98
2023-03-11T05:40:22.697Z,39.96
2023-03-11T05:41:22.699Z,39.98
2023-03-11T05:42:22.684Z,39.99
2023-03-11T05:43:22.693Z,39.97
2023-03-11T05:44:22.694Z,39.92
2023-03-11T05:45:22.693Z,39.96
2023-03-11T05:46:22.740Z,39.94
2023-03-11T05:47:22.670Z,39.96
2023-03-11T05:48:22.681Z,39.95
2023-03-11T05:49:22.680Z,39.94
2023-03-11T05:50:22.678Z,39.97
2023-03-11T05:51:22.694Z,39.92
2023-03-11T05:52:22.688Z,39.92
2023-03-11T05:53:22.669Z,39.94
2023-03-11T05:54:22.666Z,39.94
2023-03-11T05:55:23.373Z,39.92
2023-03-11T05:56:22.661Z,39.86
2023-03-11T05:57:22.809Z,39.90
2023-03-11T05:58:22.666Z,39.90
2023-03-11T05:59:22.659Z,39.94
2023-03-11T06:00:22.662Z,39.92
2023-03-11T06:01:22.652Z,39.84
2023-03-11T06:02:22.646Z,39.91
2023-03-11T06:03:22.653Z,39.87
2023-03-11T06:04:22.709Z,39.86
2023-03-11T06:05:22.738Z,39.94
2023-03-11T06:06:22.666Z,39.90
2023-03-11T06:07:22.685Z,39.87
2023-03-11T06:08:22.675Z,39.94
2023-03-11T06:09:22.682Z,39.89
2023-03-11T06:10:22.694Z,39.91
2023-03-11T06:11:22.703Z,39.91
2023-03-11T06:12:22.776Z,39.85
2023-03-11T06:13:22.729Z,39.92
2023-03-11T06:14:22.744Z,39.89
2023-03-11T06:15:22.755Z,39.87
2023-03-11T06:16:22.792Z,39.90
2023-03-11T06:17:22.765Z,39.90
2023-03-11T06:18:22.779Z,39.86
2023-03-11T06:19:22.803Z,39.87
2023-03-11T06:20:22.826Z,39.87
2023-03-11T06:21:22.835Z,39.86
2023-03-11T06:22:22.843Z,39.91
2023-03-11T06:23:22.862Z,39.87
2023-03-11T06:24:22.834Z,39.86
2023-03-11T06:25:22.834Z,39.87
2023-03-11T06:26:22.841Z,39.86
2023-03-11T06:27:22.877Z,39.89
2023-03-11T06:28:22.898Z,39.84
2023-03-11T06:29:22.946Z,39.85
2023-03-11T06:30:22.948Z,39.86
2023-03-11T06:31:23.077Z,39.85
2023-03-11T06:32:23.000Z,39.86
2023-03-11T06:33:22.951Z,39.84
2023-03-11T06:34:22.964Z,39.87
2023-03-11T06:35:22.968Z,39.84
2023-03-11T06:36:22.983Z,39.86
2023-03-11T06:37:22.983Z,39.84
2023-03-11T06:38:23.028Z,39.81
2023-03-11T06:39:23.022Z,39.77
2023-03-11T06:40:23.024Z,39.82
2023-03-11T06:41:23.025Z,39.84
2023-03-11T06:42:23.032Z,39.79
2023-03-11T06:43:23.035Z,39.81
2023-03-11T06:44:23.037Z,39.77
2023-03-11T06:45:23.809Z,39.81
2023-03-11T06:46:23.048Z,39.78
2023-03-11T06:47:23.101Z,39.78
2023-03-11T06:48:23.058Z,39.80
2023-03-11T06:49:23.064Z,39.77
2023-03-11T06:50:23.062Z,39.78
2023-03-11T06:51:23.058Z,39.77
2023-03-11T06:52:23.138Z,39.73
2023-03-11T06:53:23.040Z,39.77
2023-03-11T06:54:23.041Z,39.76
2023-03-11T06:55:23.041Z,39.75
2023-03-11T08:11:23.232Z,39.59
2023-03-11T08:17:23.260Z,39.60
2023-03-11T08:18:23.357Z,39.60
2023-03-11T08:19:23.256Z,39.59
2023-03-11T08:20:23.244Z,39.59
2023-03-11T08:21:23.245Z,39.60
2023-03-11T08:22:23.229Z,39.55
2023-03-11T08:23:23.212Z,39.60
2023-03-11T08:24:23.204Z,39.57
2023-03-11T08:25:23.201Z,39.59
2023-03-11T08:26:23.195Z,39.55
2023-03-11T08:27:23.185Z,39.59
2023-03-11T08:28:23.168Z,39.58
2023-03-11T08:29:23.169Z,39.56
2023-03-11T08:30:23.162Z,39.58
2023-03-11T08:31:23.259Z,39.57
2023-03-11T08:32:23.193Z,39.57
2023-03-11T08:33:23.144Z,39.58
2023-03-11T08:34:23.129Z,39.54
2023-03-11T08:35:23.125Z,39.60
2023-03-11T08:36:23.134Z,39.58
2023-03-11T08:37:24.377Z,39.52
2023-03-11T08:38:23.117Z,39.56
2023-03-11T08:39:23.102Z,39.55
2023-03-11T08:40:23.119Z,39.56
2023-03-11T08:41:23.110Z,39.54
2023-03-11T08:42:23.129Z,39.52
2023-03-11T08:43:23.126Z,39.50
2023-03-11T08:44:23.112Z,39.52
2023-03-11T08:45:23.094Z,39.52
2023-03-11T08:46:23.163Z,39.51
2023-03-11T08:47:23.082Z,39.52
2023-03-11T08:48:23.088Z,39.55
2023-03-11T08:49:23.085Z,39.55
2023-03-11T08:50:23.059Z,39.55
2023-03-11T08:51:23.060Z,39.56
2023-03-11T08:52:23.049Z,39.54
2023-03-11T08:53:23.066Z,39.47
2023-03-11T08:54:23.848Z,39.54
2023-03-11T08:55:23.010Z,39.54
2023-03-11T08:56:23.011Z,39.51
2023-03-11T08:57:23.010Z,39.50
2023-03-11T08:58:22.982Z,39.49
2023-03-11T08:59:22.984Z,39.49
2023-03-11T09:00:22.964Z,39.49
2023-03-11T09:01:22.953Z,39.47
2023-03-11T09:02:23.005Z,39.45
2023-03-11T09:03:22.934Z,39.43
2023-03-11T09:04:22.943Z,39.43
2023-03-11T09:05:22.945Z,39.43
2023-03-11T09:06:22.931Z,39.45
2023-03-11T09:07:22.910Z,39.41
2023-03-11T09:08:22.915Z,39.50
2023-03-11T09:09:22.898Z,39.46
2023-03-11T09:10:22.901Z,39.45
2023-03-11T09:11:22.959Z,39.43
2023-03-11T09:12:22.889Z,39.41
2023-03-11T09:13:22.870Z,39.45
2023-03-11T09:14:22.873Z,39.45
2023-03-11T09:15:22.859Z,39.43
2023-03-11T09:16:22.990Z,39.43
2023-03-11T09:17:22.941Z,39.43
2023-03-11T09:18:22.868Z,39.41
2023-03-11T09:19:22.877Z,39.38
2023-03-11T09:20:22.865Z,39.41
2023-03-11T09:21:22.886Z,39.38
2023-03-11T09:22:22.875Z,39.37
2023-03-11T09:23:22.890Z,39.37
2023-03-11T09:24:22.886Z,39.42
2023-03-11T09:25:22.885Z,39.40
2023-03-11T09:26:22.871Z,39.41
2023-03-11T09:27:22.885Z,39.37
2023-03-11T09:28:22.880Z,39.40
2023-03-11T09:29:22.853Z,39.38
2023-03-11T09:30:22.839Z,39.43
2023-03-11T09:31:23.410Z,39.38
2023-03-11T09:32:22.895Z,39.40
2023-03-11T09:33:23.370Z,39.38
2023-03-11T09:34:22.835Z,39.38
2023-03-11T09:35:22.855Z,39.45
2023-03-11T09:36:22.831Z,39.37
2023-03-11T09:37:22.901Z,39.35
2023-03-11T09:38:22.821Z,39.40
2023-03-11T09:39:22.845Z,39.34
2023-03-11T09:40:22.850Z,39.37
2023-03-11T09:41:22.863Z,39.38
2023-03-11T09:42:22.838Z,39.35
2023-03-11T09:43:22.820Z,39.37
2023-03-11T09:44:22.833Z,39.36
2023-03-11T09:45:22.821Z,39.36
2023-03-11T09:46:22.827Z,39.27
2023-03-11T09:47:22.840Z,39.31
2023-03-11T09:48:22.934Z,39.35
2023-03-11T09:49:22.819Z,39.33
2023-03-11T09:50:22.842Z,39.31
2023-03-11T09:51:22.937Z,39.29
2023-03-11T09:52:22.837Z,39.30
2023-03-11T09:53:22.856Z,39.29
2023-03-11T09:54:22.863Z,39.32
2023-03-11T09:55:22.855Z,39.26
2023-03-11T09:56:22.857Z,39.28
2023-03-11T09:57:22.859Z,39.28
2023-03-11T09:58:22.860Z,39.31
2023-03-11T09:59:22.842Z,39.25
2023-03-11T10:00:22.886Z,39.27
2023-03-11T10:01:23.368Z,39.22
2023-03-11T10:02:22.921Z,39.32
2023-03-11T10:03:22.893Z,39.25
2023-03-11T10:04:22.863Z,39.28
2023-03-11T10:05:22.847Z,39.31
2023-03-11T10:06:22.851Z,39.27
2023-03-11T10:07:22.873Z,39.25
2023-03-11T10:08:22.849Z,39.27
2023-03-11T10:09:22.844Z,39.27
2023-03-11T10:10:22.859Z,39.28
2023-03-11T10:11:22.842Z,39.31
2023-03-11T10:12:22.894Z,39.26
2023-03-11T10:13:22.815Z,39.25
2023-03-11T10:14:22.821Z,39.25
2023-03-11T10:15:22.807Z,39.25
2023-03-11T10:16:22.822Z,39.25
2023-03-11T10:17:22.816Z,39.25
2023-03-11T10:18:22.802Z,39.28
2023-03-11T10:19:22.852Z,39.25
2023-03-11T10:20:22.824Z,39.23
2023-03-11T10:21:25.519Z,39.25
2023-03-11T10:22:22.822Z,39.23
2023-03-11T10:23:22.836Z,39.28
2023-03-11T10:24:22.803Z,39.27
2023-03-11T10:25:22.870Z,39.29
2023-03-11T10:26:22.781Z,39.30
2023-03-11T10:27:22.782Z,39.27
2023-03-11T10:28:22.765Z,39.25
2023-03-11T10:29:22.748Z,39.24
2023-03-11T10:30:22.731Z,39.22
2023-03-11T10:31:22.909Z,39.24
2023-03-11T10:32:22.730Z,39.23
2023-03-11T10:33:22.709Z,39.23
2023-03-11T10:34:22.710Z,39.23
2023-03-11T10:35:22.707Z,39.24
2023-03-11T10:36:22.682Z,39.25
2023-03-11T10:37:22.758Z,39.28
2023-03-11T10:38:22.666Z,39.23
2023-03-11T10:39:22.652Z,39.23
2023-03-11T10:40:23.971Z,39.24
2023-03-11T10:41:22.632Z,39.22
2023-03-11T10:42:22.625Z,39.25
2023-03-11T10:43:22.616Z,39.29
2023-03-11T10:44:22.620Z,39.28
2023-03-11T10:45:22.606Z,39.23
2023-03-11T10:46:22.612Z,39.22
2023-03-11T10:47:22.581Z,39.24
2023-03-11T10:48:22.593Z,39.20
2023-03-11T10:49:22.556Z,39.19
2023-03-11T10:50:22.554Z,39.22
2023-03-11T10:51:22.557Z,39.20
2023-03-11T10:52:22.522Z,39.22
2023-03-11T10:53:22.511Z,39.23
2023-03-11T10:54:22.520Z,39.18
2023-03-11T10:55:22.503Z,39.19
2023-03-11T10:56:22.482Z,39.24
2023-03-11T10:57:22.549Z,39.20
2023-03-11T10:58:22.471Z,39.20
2023-03-11T10:59:22.449Z,39.18
2023-03-11T11:00:23.401Z,39.20
2023-03-11T11:01:22.544Z,39.22
2023-03-11T11:02:22.420Z,39.22
2023-03-11T11:03:22.412Z,39.18
2023-03-11T11:04:22.439Z,39.22
2023-03-11T16:53:29.534Z,37.26
2023-03-11T17:05:28.916Z,37.32
2023-03-11T17:06:28.939Z,37.29
2023-03-11T17:07:28.950Z,37.27
2023-03-11T17:08:28.956Z,37.30
2023-03-11T17:09:28.971Z,37.30
2023-03-11T17:10:29.047Z,37.32
2023-03-11T17:11:29.011Z,37.29
2023-03-11T17:12:29.032Z,37.29
2023-03-11T17:13:29.044Z,37.33
2023-03-11T17:14:29.065Z,37.30
2023-03-11T17:15:29.072Z,37.36
2023-03-11T17:19:29.128Z,37.34
2023-03-11T17:24:29.214Z,37.34
2023-03-11T17:26:29.233Z,37.36
2023-03-11T17:27:29.253Z,37.34
2023-03-11T17:28:29.272Z,37.37
2023-03-11T17:29:29.309Z,37.33
2023-03-11T17:30:36.730Z,37.36
2023-03-11T17:32:29.358Z,37.39
2023-03-11T17:33:29.322Z,37.38
2023-03-11T17:45:29.313Z,37.42
2023-03-11T19:14:31.258Z,37.52
2023-03-11T19:27:31.567Z,37.47
2023-03-11T19:52:32.224Z,37.53
2023-03-11T23:29:39.188Z,37.46
2023-03-11T23:33:39.200Z,37.46
2023-03-11T23:44:39.701Z,37.46
2023-03-11T23:47:38.937Z,37.46
2023-03-11T23:48:38.970Z,37.42
2023-03-11T23:49:39.010Z,37.45
2023-03-11T23:50:39.049Z,37.46
2023-03-11T23:51:39.082Z,37.46
2023-03-11T23:52:39.125Z,37.42
2023-03-11T23:53:39.200Z,37.47
2023-03-11T23:54:39.194Z,37.47
2023-03-11T23:55:39.216Z,37.47
2023-03-11T23:56:39.248Z,37.42
2023-03-11T23:57:39.713Z,37.46
2023-03-11T23:58:39.320Z,37.43
2023-03-11T23:59:39.358Z,37.46
